createdAt,value
2018-09-05T00:02:12.095Z,4.97
2018-09-05T00:04:40.782Z,4.63
2018-09-05T00:07:09.475Z,5.53
2018-09-05T00:09:38.157Z,5.17
2018-09-05T00:12:07.048Z,5.67
2018-09-05T00:14:35.844Z,6.77
2018-09-05T00:17:04.564Z,5.50
2018-09-05T00:19:33.235Z,5.63
2018-09-05T00:22:01.922Z,4.77
2018-09-05T00:24:30.587Z,5.27
2018-09-05T00:26:59.279Z,5.73
2018-09-05T00:29:27.943Z,5.27
2018-09-05T00:31:56.619Z,5.93
2018-09-05T00:34:25.323Z,5.27
2018-09-05T00:36:54.069Z,5.57
2018-09-05T00:39:22.781Z,5.30
2018-09-05T00:41:51.481Z,4.70
2018-09-05T00:44:20.208Z,5.23
2018-09-05T00:46:48.885Z,5.43
2018-09-05T00:49:18.176Z,6.17
2018-09-05T00:51:46.847Z,5.93
2018-09-05T00:54:15.507Z,6.30
2018-09-05T00:56:44.219Z,6.33
2018-09-05T00:59:12.908Z,11.57
2018-09-05T01:01:41.725Z,6.60
2018-09-05T01:04:10.420Z,6.47
2018-09-05T01:06:39.077Z,7.23
2018-09-05T01:09:08.404Z,6.57
2018-09-05T01:11:37.286Z,9.00
2018-09-05T01:14:06.132Z,7.80
2018-09-05T01:16:34.920Z,7.53
2018-09-05T01:19:03.644Z,8.33
2018-09-05T01:21:32.276Z,7.43
2018-09-05T01:24:00.983Z,9.57
2018-09-05T01:26:29.681Z,9.97
2018-09-05T01:28:58.346Z,11.67
2018-09-05T01:31:27.029Z,13.10
2018-09-05T01:33:55.714Z,14.53
2018-09-05T01:36:24.419Z,15.33
2018-09-05T01:38:53.135Z,18.03
2018-09-05T01:41:21.897Z,17.90
2018-09-05T01:43:50.551Z,20.20
2018-09-05T01:46:19.312Z,21.17
2018-09-05T01:48:47.990Z,21.67
2018-09-05T01:51:16.691Z,21.27
2018-09-05T01:53:45.405Z,20.93
2018-09-05T01:56:14.141Z,19.70
2018-09-05T01:58:42.864Z,21.87
2018-09-05T02:01:11.540Z,22.30
2018-09-05T02:03:40.301Z,19.63
2018-09-05T02:06:08.980Z,19.87
2018-09-05T02:08:37.679Z,19.33
2018-09-05T02:11:06.349Z,19.47
2018-09-05T02:13:35.020Z,17.17
2018-09-05T02:16:03.719Z,18.80
2018-09-05T02:18:32.456Z,18.30
2018-09-05T02:21:01.112Z,17.90
2018-09-05T02:23:29.816Z,17.43
2018-09-05T02:25:58.584Z,17.23
2018-09-05T02:28:27.248Z,17.87
2018-09-05T02:30:55.952Z,17.03
2018-09-05T02:33:24.629Z,18.23
2018-09-05T02:35:53.320Z,16.97
2018-09-05T02:38:22.029Z,19.77
2018-09-05T02:40:50.785Z,17.97
2018-09-05T02:43:24.688Z,18.67
2018-09-05T02:45:53.815Z,17.77
2018-09-05T02:48:22.952Z,17.47
2018-09-05T02:50:51.648Z,17.30
2018-09-05T02:53:20.356Z,18.27
2018-09-05T02:55:54.181Z,17.20
2018-09-05T02:58:22.871Z,17.23
2018-09-05T03:00:51.568Z,17.57
2018-09-05T03:03:20.284Z,18.03
2018-09-05T03:05:48.977Z,18.60
2018-09-05T03:08:17.655Z,16.87
2018-09-05T03:10:46.332Z,19.43
2018-09-05T03:13:15.037Z,18.00
2018-09-05T03:15:43.711Z,16.77
2018-09-05T03:18:12.784Z,17.83
2018-09-05T03:20:41.660Z,20.83
2018-09-05T03:23:10.617Z,18.40
2018-09-05T03:25:39.475Z,20.10
2018-09-05T03:28:08.730Z,19.80
2018-09-05T03:30:37.595Z,16.87
2018-09-05T03:33:06.459Z,16.53
2018-09-05T03:35:35.300Z,18.87
2018-09-05T03:38:04.184Z,19.17
2018-09-05T03:40:32.855Z,17.47
2018-09-05T03:43:01.590Z,18.77
2018-09-05T03:45:30.241Z,16.57
2018-09-05T03:47:58.936Z,20.07
2018-09-05T03:50:27.592Z,18.40
2018-09-05T03:52:56.261Z,18.87
2018-09-05T03:55:24.930Z,17.37
2018-09-05T03:57:53.616Z,19.90
2018-09-05T04:00:22.410Z,18.50
2018-09-05T04:02:51.096Z,18.87
2018-09-05T04:05:19.883Z,18.23
2018-09-05T04:07:48.575Z,18.40
2018-09-05T04:10:17.308Z,17.67
2018-09-05T04:12:45.968Z,19.23
2018-09-05T04:15:14.640Z,18.40
2018-09-05T04:17:43.311Z,18.53
2018-09-05T04:20:12.025Z,19.10
2018-09-05T04:22:40.724Z,20.67
2018-09-05T04:25:09.471Z,18.40
2018-09-05T04:27:38.696Z,18.10
2018-09-05T04:30:07.596Z,20.97
2018-09-05T04:32:36.280Z,20.27
2018-09-05T04:35:05.025Z,16.93
2018-09-05T04:37:33.688Z,19.70
2018-09-05T04:40:02.364Z,17.23
2018-09-05T04:42:31.233Z,19.50
2018-09-05T04:44:59.892Z,17.13
2018-09-05T04:47:28.590Z,19.13
2018-09-05T04:49:57.273Z,16.83
2018-09-05T04:52:25.967Z,16.70
2018-09-05T04:54:54.648Z,18.83
2018-09-05T04:57:23.324Z,14.73
2018-09-05T04:59:52.055Z,17.60
2018-09-05T05:02:20.817Z,16.93
2018-09-05T05:04:49.547Z,17.83
2018-09-05T05:07:18.246Z,18.97
2018-09-05T05:09:46.922Z,16.67
2018-09-05T05:12:15.615Z,16.63
2018-09-05T05:14:44.272Z,19.23
2018-09-05T05:17:12.919Z,17.67
2018-09-05T05:19:41.610Z,18.97
2018-09-05T05:22:10.350Z,16.97
2018-09-05T05:24:39.030Z,18.33
2018-09-05T05:27:07.714Z,18.07
2018-09-05T05:29:36.403Z,21.87
2018-09-05T05:32:05.072Z,23.10
2018-09-05T05:34:33.837Z,17.30
2018-09-05T05:37:02.594Z,21.13
2018-09-05T05:39:31.435Z,22.07
2018-09-05T05:42:00.151Z,17.87
2018-09-05T05:44:28.856Z,18.53
2018-09-05T05:46:57.620Z,19.23
2018-09-05T05:49:26.326Z,19.13
2018-09-05T05:51:55.044Z,16.97
2018-09-05T05:54:23.755Z,17.27
2018-09-05T05:56:52.444Z,16.90
2018-09-05T05:59:21.148Z,16.27
2018-09-05T06:01:49.888Z,17.83
2018-09-05T06:04:18.577Z,19.20
2018-09-05T06:06:47.307Z,18.90
2018-09-05T06:09:16.008Z,16.67
2018-09-05T06:11:44.781Z,16.60
2018-09-05T06:14:13.444Z,15.67
2018-09-05T06:16:42.126Z,17.47
2018-09-05T06:19:10.828Z,14.63
2018-09-05T06:21:39.647Z,18.73
2018-09-05T06:24:08.355Z,18.73
2018-09-05T06:26:37.056Z,15.23
2018-09-05T06:29:05.970Z,15.27
2018-09-05T06:31:34.761Z,14.47
2018-09-05T06:34:03.523Z,19.23
2018-09-05T06:36:32.253Z,16.17
2018-09-05T06:39:01.069Z,17.47
2018-09-05T06:41:30.148Z,14.73
2018-09-05T06:43:58.947Z,16.67
2018-09-05T06:46:27.699Z,16.93
2018-09-05T06:48:56.428Z,20.43
2018-09-05T06:51:25.181Z,14.70
2018-09-05T06:53:53.892Z,17.43
2018-09-05T06:56:22.640Z,17.83
2018-09-05T06:58:51.523Z,16.20
2018-09-05T07:01:20.533Z,14.70
2018-09-05T07:03:49.329Z,13.37
2018-09-05T07:06:18.119Z,14.30
2018-09-05T07:08:46.864Z,13.20
2018-09-05T07:11:15.613Z,18.80
2018-09-05T07:13:44.978Z,14.13
2018-09-05T07:16:14.000Z,15.20
2018-09-05T07:18:42.764Z,16.53
2018-09-05T07:21:11.686Z,15.97
2018-09-05T07:23:40.431Z,14.00
2018-09-05T07:26:09.520Z,14.73
2018-09-05T07:28:38.672Z,12.57
2018-09-05T07:31:07.624Z,12.10
2018-09-05T07:33:37.011Z,13.10
2018-09-05T07:36:06.251Z,14.37
2018-09-05T07:38:35.366Z,14.63
2018-09-05T07:41:04.217Z,15.70
2018-09-05T07:43:33.147Z,12.93
2018-09-05T07:46:02.296Z,13.47
2018-09-05T07:48:31.208Z,14.30
2018-09-05T07:51:02.504Z,13.40
2018-09-05T07:53:31.459Z,11.53
2018-09-05T07:56:00.924Z,11.93
2018-09-05T07:58:29.606Z,15.63
2018-09-05T08:00:58.479Z,17.60
2018-09-05T08:03:27.511Z,20.87
2018-09-05T08:05:56.307Z,13.43
2018-09-05T08:08:25.296Z,17.00
2018-09-05T08:10:54.089Z,15.07
2018-09-05T08:13:24.337Z,14.33
2018-09-05T08:15:53.033Z,13.77
2018-09-05T08:18:21.804Z,13.37
2018-09-05T08:20:50.687Z,13.57
2018-09-05T08:23:19.542Z,15.23
2018-09-05T08:25:48.275Z,11.83
2018-09-05T08:28:17.121Z,15.50
2018-09-05T08:30:45.808Z,13.30
2018-09-05T08:33:14.493Z,13.03
2018-09-05T08:35:43.442Z,13.77
2018-09-05T08:38:11.918Z,13.80
2018-09-05T08:40:40.545Z,12.13
2018-09-05T08:43:09.215Z,14.37
2018-09-05T08:45:38.138Z,12.00
2018-09-05T08:48:06.846Z,13.57
2018-09-05T08:50:35.520Z,14.53
2018-09-05T08:53:04.140Z,16.93
2018-09-05T08:55:32.794Z,14.87
2018-09-05T08:58:01.547Z,15.40
2018-09-05T09:00:30.246Z,14.67
2018-09-05T09:02:58.972Z,17.27
2018-09-05T09:05:27.621Z,17.50
2018-09-05T09:07:56.360Z,10.77
2018-09-05T09:10:25.118Z,11.17
2018-09-05T09:12:53.899Z,12.10
2018-09-05T09:15:22.692Z,9.80
2018-09-05T09:17:51.357Z,13.13
2018-09-05T09:20:20.154Z,8.77
2018-09-05T09:22:48.783Z,10.73
2018-09-05T09:25:17.461Z,8.10
2018-09-05T09:27:46.189Z,11.47
2018-09-05T09:30:14.852Z,7.10
2018-09-05T09:32:43.533Z,8.40
2018-09-05T09:35:12.259Z,9.27
2018-09-05T09:37:40.934Z,8.60
2018-09-05T09:40:09.636Z,7.30
2018-09-05T09:42:38.304Z,6.53
2018-09-05T09:45:07.069Z,8.70
2018-09-05T09:47:35.721Z,11.37
2018-09-05T09:50:04.472Z,7.53
2018-09-05T09:52:37.442Z,6.13
2018-09-05T09:55:07.957Z,5.87
2018-09-05T09:57:36.955Z,6.97
2018-09-05T10:00:06.376Z,7.27
2018-09-05T10:02:40.058Z,8.27
2018-09-05T10:05:13.856Z,6.17
2018-09-05T10:07:47.769Z,4.60
2018-09-05T10:10:21.947Z,5.23
2018-09-05T10:12:56.499Z,3.97
2018-09-05T10:15:30.395Z,4.23
2018-09-05T10:18:04.196Z,4.00
2018-09-05T10:20:32.915Z,6.47
2018-09-05T10:23:01.588Z,5.93
2018-09-05T10:25:30.269Z,5.63
2018-09-05T10:27:58.942Z,5.70
2018-09-05T10:30:27.629Z,6.60
2018-09-05T10:32:56.301Z,4.23
2018-09-05T10:35:24.993Z,6.40
2018-09-05T10:37:53.669Z,5.97
2018-09-05T10:40:22.403Z,4.50
2018-09-05T10:42:51.116Z,5.73
2018-09-05T10:45:19.817Z,4.83
2018-09-05T10:47:48.599Z,6.33
2018-09-05T10:50:17.249Z,3.93
2018-09-05T10:52:45.911Z,4.77
2018-09-05T10:55:14.609Z,5.07
2018-09-05T10:57:43.366Z,6.23
2018-09-05T11:00:12.066Z,5.53
2018-09-05T11:02:40.735Z,6.17
2018-09-05T11:05:09.480Z,5.13
2018-09-05T11:07:38.160Z,5.10
2018-09-05T11:10:06.925Z,4.37
2018-09-05T11:12:35.600Z,4.53
2018-09-05T11:15:04.354Z,4.97
2018-09-05T11:17:33.034Z,7.50
2018-09-05T11:20:01.711Z,6.03
2018-09-05T11:22:30.389Z,5.17
2018-09-05T11:24:59.077Z,3.50
2018-09-05T11:27:27.731Z,6.53
2018-09-05T11:29:56.431Z,5.47
2018-09-05T11:32:25.124Z,4.83
2018-09-05T11:34:53.805Z,4.23
2018-09-05T11:37:22.584Z,3.50
2018-09-05T11:39:51.258Z,3.70
2018-09-05T11:42:19.905Z,2.73
2018-09-05T11:44:48.606Z,2.20
2018-09-05T11:47:17.282Z,3.00
2018-09-05T11:49:45.940Z,4.77
2018-09-05T11:52:14.608Z,4.17
2018-09-05T11:54:43.284Z,2.73
2018-09-05T11:57:12.006Z,2.63
2018-09-05T11:59:40.668Z,2.57
2018-09-05T12:02:09.400Z,2.97
2018-09-05T12:04:38.049Z,4.03
2018-09-05T12:07:06.772Z,1.17
2018-09-05T12:09:35.416Z,3.70
2018-09-05T12:12:04.177Z,5.00
2018-09-05T12:14:32.844Z,2.63
2018-09-05T12:17:01.576Z,2.73
2018-09-05T12:19:30.279Z,2.70
2018-09-05T12:21:58.919Z,3.10
2018-09-05T12:24:27.664Z,1.60
2018-09-05T12:26:56.348Z,2.83
2018-09-05T12:29:25.079Z,3.00
2018-09-05T12:31:54.460Z,2.00
2018-09-05T12:34:23.244Z,5.47
2018-09-05T12:36:51.902Z,3.07
2018-09-05T12:39:20.595Z,2.27
2018-09-05T12:41:49.231Z,3.17
2018-09-05T12:44:17.903Z,2.83
2018-09-05T12:46:46.600Z,3.40
2018-09-05T12:49:15.290Z,2.07
2018-09-05T12:51:43.975Z,4.53
2018-09-05T12:54:12.731Z,2.40
2018-09-05T12:56:42.092Z,3.40
2018-09-05T12:59:10.795Z,5.10
2018-09-05T13:01:39.509Z,3.07
2018-09-05T13:04:08.299Z,3.67
2018-09-05T13:06:37.339Z,3.20
2018-09-05T13:09:09.581Z,3.20
2018-09-05T13:11:38.283Z,2.73
2018-09-05T13:14:06.950Z,4.20
2018-09-05T13:16:35.608Z,4.93
2018-09-05T13:19:04.276Z,2.93
2018-09-05T13:21:32.938Z,4.80
2018-09-05T13:24:01.614Z,3.03
2018-09-05T13:26:30.325Z,3.93
2018-09-05T13:28:59.458Z,5.40
2018-09-05T13:31:28.133Z,3.73
2018-09-05T13:33:56.913Z,4.33
2018-09-05T13:36:25.693Z,4.67
2018-09-05T13:38:54.575Z,5.47
2018-09-05T13:41:23.487Z,4.63
2018-09-05T13:43:52.355Z,2.90
2018-09-05T13:46:21.310Z,3.87
2018-09-05T13:48:50.212Z,2.23
2018-09-05T13:51:19.102Z,2.67
2018-09-05T13:53:47.828Z,4.47
2018-09-05T13:56:16.567Z,4.27
2018-09-05T13:58:45.193Z,4.50
2018-09-05T14:01:14.750Z,4.60
2018-09-05T14:03:43.428Z,4.53
2018-09-05T14:06:12.120Z,5.57
2018-09-05T14:08:40.780Z,3.80
2018-09-05T14:11:09.454Z,6.73
2018-09-05T14:13:38.201Z,4.70
2018-09-05T14:16:06.920Z,5.83
2018-09-05T14:18:35.595Z,3.77
2018-09-05T14:21:04.288Z,3.17
2018-09-05T14:23:32.998Z,5.90
2018-09-05T14:26:01.772Z,5.43
2018-09-05T14:28:30.511Z,7.90
2018-09-05T14:30:59.269Z,4.90
2018-09-05T14:33:28.156Z,3.90
2018-09-05T14:35:56.897Z,3.47
2018-09-05T14:38:25.565Z,6.40
2018-09-05T14:40:54.291Z,3.03
2018-09-05T14:43:22.980Z,5.63
2018-09-05T14:45:51.679Z,3.97
2018-09-05T14:48:20.396Z,4.37
2018-09-05T14:50:49.041Z,5.50
2018-09-05T14:53:17.726Z,6.03
2018-09-05T14:55:46.404Z,3.87
2018-09-05T14:58:15.076Z,4.80
2018-09-05T15:00:43.780Z,6.70
2018-09-05T15:03:12.512Z,4.57
2018-09-05T15:05:41.187Z,5.47
2018-09-05T15:08:09.890Z,5.30
2018-09-05T15:10:38.714Z,6.77
2018-09-05T15:13:07.494Z,6.00
2018-09-05T15:15:36.255Z,7.37
2018-09-05T15:18:04.988Z,4.90
2018-09-05T15:20:33.681Z,4.57
2018-09-05T15:23:02.368Z,7.17
2018-09-05T15:25:31.051Z,3.07
2018-09-05T15:27:59.816Z,4.60
2018-09-05T15:30:28.485Z,3.70
2018-09-05T15:32:58.097Z,6.57
2018-09-05T15:35:26.997Z,3.47
2018-09-05T15:37:55.864Z,3.47
2018-09-05T15:40:25.272Z,9.13
2018-09-05T15:42:54.054Z,4.97
2018-09-05T15:45:23.064Z,5.83
2018-09-05T15:47:51.941Z,4.87
2018-09-05T15:50:20.930Z,7.23
2018-09-05T15:52:49.716Z,4.53
2018-09-05T15:55:18.708Z,5.70
2018-09-05T15:57:47.537Z,2.60
2018-09-05T16:00:16.863Z,5.83
2018-09-05T16:02:45.569Z,5.53
2018-09-05T16:05:14.311Z,7.00
2018-09-05T16:07:43.171Z,5.20
2018-09-05T16:10:12.017Z,7.43
2018-09-05T16:12:40.780Z,6.63
2018-09-05T16:15:09.663Z,6.93
2018-09-05T16:17:38.413Z,6.00
2018-09-05T16:20:07.274Z,5.90
2018-09-05T16:22:36.059Z,5.80
2018-09-05T16:25:04.830Z,6.57
2018-09-05T16:27:33.505Z,4.00
2018-09-05T16:30:02.191Z,5.17
2018-09-05T16:32:30.844Z,4.03
2018-09-05T16:34:59.566Z,8.83
2018-09-05T16:37:28.254Z,4.73
2018-09-05T16:39:56.918Z,4.93
2018-09-05T16:42:25.640Z,5.97
2018-09-05T16:44:54.404Z,5.90
2018-09-05T16:47:23.144Z,5.97
2018-09-05T16:49:51.784Z,6.73
2018-09-05T16:52:21.108Z,4.03
2018-09-05T16:54:49.753Z,6.47
2018-09-05T16:57:18.438Z,7.13
2018-09-05T16:59:47.089Z,8.87
2018-09-05T17:02:15.861Z,6.50
2018-09-05T17:04:44.520Z,7.37
2018-09-05T17:07:13.188Z,8.97
2018-09-05T17:09:41.863Z,10.33
2018-09-05T17:12:10.529Z,8.47
2018-09-05T17:14:39.319Z,9.37
2018-09-05T17:17:08.039Z,7.07
2018-09-05T17:19:36.751Z,6.80
2018-09-05T17:22:05.468Z,8.83
2018-09-05T17:24:34.232Z,5.43
2018-09-05T17:27:02.921Z,5.47
2018-09-05T17:29:31.641Z,5.57
2018-09-05T17:32:00.351Z,5.13
2018-09-05T17:34:29.228Z,9.87
2018-09-05T17:36:57.913Z,5.63
2018-09-05T17:39:26.615Z,7.20
2018-09-05T17:41:55.383Z,4.43
2018-09-05T17:44:24.106Z,7.70
2018-09-05T17:46:52.804Z,7.53
2018-09-05T17:49:21.565Z,6.97
2018-09-05T17:51:50.319Z,6.50
2018-09-05T17:54:19.059Z,7.07
2018-09-05T17:56:47.843Z,6.70
2018-09-05T17:59:16.588Z,4.10
2018-09-05T18:01:45.386Z,7.03
2018-09-05T18:04:14.108Z,5.00
2018-09-05T18:06:42.835Z,8.97
2018-09-05T18:09:12.084Z,10.03
2018-09-05T18:11:40.867Z,8.97
2018-09-05T18:14:09.594Z,6.47
2018-09-05T18:16:38.336Z,7.30
2018-09-05T18:19:07.064Z,8.50
2018-09-05T18:21:35.764Z,8.83
2018-09-05T18:24:04.641Z,7.33
2018-09-05T18:26:33.324Z,8.00
2018-09-05T18:29:02.004Z,7.47
2018-09-05T18:31:30.695Z,8.90
2018-09-05T18:33:59.459Z,4.77
2018-09-05T18:36:28.118Z,7.87
2018-09-05T18:38:56.821Z,7.73
2018-09-05T18:41:25.518Z,5.30
2018-09-05T18:43:54.216Z,5.20
2018-09-05T18:46:22.901Z,7.30
2018-09-05T18:48:51.602Z,7.67
2018-09-05T18:51:20.356Z,8.20
2018-09-05T18:53:49.024Z,8.33
2018-09-05T18:56:17.743Z,7.40
2018-09-05T18:58:46.476Z,5.27
2018-09-05T19:01:15.156Z,5.67
2018-09-05T19:03:43.828Z,7.03
2018-09-05T19:06:12.495Z,6.80
2018-09-05T19:08:41.179Z,6.53
2018-09-05T19:11:09.876Z,9.03
2018-09-05T19:13:38.556Z,7.33
2018-09-05T19:16:07.250Z,9.80
2018-09-05T19:18:35.949Z,6.20
2018-09-05T19:21:04.685Z,6.73
2018-09-05T19:23:33.989Z,8.33
2018-09-05T19:26:02.720Z,9.47
2018-09-05T19:28:31.402Z,8.70
2018-09-05T19:31:00.203Z,6.87
2018-09-05T19:33:28.917Z,5.30
2018-09-05T19:35:57.584Z,7.23
2018-09-05T19:38:26.250Z,8.10
2018-09-05T19:40:54.921Z,8.80
2018-09-05T19:43:23.628Z,5.80
2018-09-05T19:45:52.311Z,7.63
2018-09-05T19:48:20.984Z,6.40
2018-09-05T19:50:49.687Z,7.27
2018-09-05T19:53:18.375Z,6.17
2018-09-05T19:55:47.074Z,8.87
2018-09-05T19:58:15.764Z,8.33
2018-09-05T20:00:44.466Z,7.53
2018-09-05T20:03:13.121Z,7.23
2018-09-05T20:05:41.909Z,9.03
2018-09-05T20:08:10.581Z,5.67
2018-09-05T20:10:39.232Z,11.57
2018-09-05T20:13:08.334Z,6.30
2018-09-05T20:15:37.404Z,8.00
2018-09-05T20:18:06.284Z,8.40
2018-09-05T20:20:35.073Z,5.77
2018-09-05T20:23:03.771Z,9.37
2018-09-05T20:25:32.593Z,8.50
2018-09-05T20:28:01.273Z,7.43
2018-09-05T20:30:30.836Z,7.67
2018-09-05T20:32:59.596Z,6.90
2018-09-05T20:35:28.215Z,8.63
2018-09-05T20:37:56.905Z,7.70
2018-09-05T20:40:25.581Z,7.37
2018-09-05T20:42:54.243Z,5.70
2018-09-05T20:45:22.952Z,8.57
2018-09-05T20:47:51.618Z,9.40
2018-09-05T20:50:20.417Z,9.23
2018-09-05T20:52:49.140Z,7.67
2018-09-05T20:55:17.812Z,7.67
2018-09-05T20:57:46.489Z,9.63
2018-09-05T21:00:15.160Z,7.70
2018-09-05T21:02:43.828Z,7.20
2018-09-05T21:05:12.511Z,7.97
2018-09-05T21:07:41.223Z,6.63
2018-09-05T21:10:09.938Z,8.33
2018-09-05T21:12:38.648Z,5.37
2018-09-05T21:15:07.396Z,8.33
2018-09-05T21:17:36.102Z,6.50
2018-09-05T21:20:05.007Z,6.53
2018-09-05T21:22:33.932Z,7.50
2018-09-05T21:25:02.658Z,8.03
2018-09-05T21:27:32.093Z,7.67
2018-09-05T21:30:03.044Z,7.27
2018-09-05T21:32:31.860Z,9.63
2018-09-05T21:35:00.695Z,8.03
2018-09-05T21:37:29.438Z,8.77
2018-09-05T21:39:58.135Z,8.43
2018-09-05T21:42:27.002Z,7.53
2018-09-05T21:44:55.677Z,6.73
2018-09-05T21:47:24.425Z,6.07
2018-09-05T21:49:53.110Z,5.70
2018-09-05T21:52:21.923Z,6.57
2018-09-05T21:54:50.576Z,8.33
2018-09-05T21:57:21.949Z,10.43
2018-09-05T21:59:50.603Z,11.43
2018-09-05T22:02:19.267Z,8.53
2018-09-05T22:04:48.000Z,10.43
2018-09-05T22:07:17.092Z,5.30
2018-09-05T22:09:45.794Z,6.00
2018-09-05T22:12:14.508Z,8.73
2018-09-05T22:14:43.185Z,10.20
2018-09-05T22:17:12.144Z,5.50
2018-09-05T22:19:40.817Z,6.63
2018-09-05T22:22:09.511Z,5.90
2018-09-05T22:24:38.179Z,7.37
2018-09-05T22:27:06.882Z,8.07
2018-09-05T22:29:35.537Z,7.50
2018-09-05T22:32:04.270Z,4.23
2018-09-05T22:34:32.896Z,9.10
2018-09-05T22:37:01.624Z,8.60
2018-09-05T22:39:30.287Z,8.17
2018-09-05T22:41:58.954Z,7.43
2018-09-05T22:44:38.496Z,6.50
2018-09-05T22:47:18.120Z,5.63
2018-09-05T22:50:03.050Z,6.43
2018-09-05T22:52:55.393Z,6.63
2018-09-05T22:57:44.419Z,6.27
2018-09-05T23:00:24.115Z,6.73
2018-09-05T23:07:14.852Z,8.40
2018-09-05T23:09:54.556Z,4.93
2018-09-05T23:14:41.189Z,6.07
2018-09-05T23:17:40.681Z,5.80
2018-09-05T23:21:20.860Z,7.77
2018-09-05T23:23:57.909Z,7.03
2018-09-05T23:26:26.914Z,5.30
2018-09-05T23:28:55.615Z,7.57
2018-09-05T23:31:24.551Z,5.40
2018-09-05T23:33:53.288Z,7.43
2018-09-05T23:36:22.265Z,5.30
2018-09-05T23:38:50.944Z,5.90
2018-09-05T23:41:19.745Z,8.57
2018-09-05T23:43:49.334Z,7.37
2018-09-05T23:46:18.049Z,4.40
2018-09-05T23:48:46.739Z,5.63
2018-09-05T23:51:15.392Z,7.60
2018-09-05T23:53:44.085Z,4.37
2018-09-05T23:56:12.750Z,6.57
2018-09-05T23:58:41.449Z,5.87
